TimeEDT,TemperatureF,Dew PointF,Humidity,Sea Level PressureIn,VisibilityMPH,Wind Direction,Wind SpeedMPH,Gust SpeedMPH,PrecipitationIn,Events,Conditions,WindDirDegrees,DateUTC
12:53 AM,39.9,30.9,70,29.71,10.0,SW,16.1,-,N/A,,Overcast,220,2013-03-12 04:53:00
1:41 AM,39.2,30.2,70,29.71,10.0,SW,17.3,-,N/A,,Overcast,230,2013-03-12 05:41:00
1:48 AM,39.2,30.2,70,29.71,10.0,SW,15.0,-,N/A,,Overcast,230,2013-03-12 05:48:00
1:53 AM,39.0,30.9,73,29.72,10.0,SW,12.7,-,N/A,,Overcast,220,2013-03-12 05:53:00
2:53 AM,39.0,28.9,67,29.74,10.0,WSW,13.8,-,N/A,,Overcast,240,2013-03-12 06:53:00
3:53 AM,37.9,28.9,70,29.75,10.0,WSW,18.4,-,N/A,,Overcast,250,2013-03-12 07:53:00
4:53 AM,37.0,30.0,76,29.75,10.0,SW,11.5,-,N/A,,Overcast,230,2013-03-12 08:53:00
5:25 AM,37.4,30.2,75,29.76,8.0,SW,13.8,19.6,N/A,,Overcast,230,2013-03-12 09:25:00
5:53 AM,37.0,30.0,76,29.77,7.0,WSW,11.5,-,N/A,,Overcast,240,2013-03-12 09:53:00
6:15 AM,37.4,30.2,75,29.78,10.0,SW,11.5,-,N/A,,Overcast,220,2013-03-12 10:15:00
6:53 AM,36.0,30.9,82,29.80,7.0,SW,8.1,-,0.00,,Overcast,230,2013-03-12 10:53:00
7:53 AM,37.0,28.0,70,29.81,10.0,West,15.0,20.7,0.00,,Overcast,260,2013-03-12 11:53:00
8:09 AM,37.4,28.4,70,29.80,10.0,WSW,10.4,-,N/A,,Overcast,250,2013-03-12 12:09:00
8:53 AM,37.0,28.0,70,29.83,10.0,WSW,9.2,-,N/A,,Overcast,250,2013-03-12 12:53:00
9:53 AM,37.0,28.9,73,29.84,10.0,SW,12.7,-,0.00,,Overcast,230,2013-03-12 13:53:00
10:07 AM,37.4,28.4,70,29.84,10.0,SW,13.8,-,N/A,,Overcast,230,2013-03-12 14:07:00
10:14 AM,37.4,28.4,70,29.84,10.0,WSW,15.0,-,N/A,,Overcast,240,2013-03-12 14:14:00
10:53 AM,37.0,28.9,73,29.85,9.0,WSW,15.0,-,N/A,,Overcast,240,2013-03-12 14:53:00
11:53 AM,37.9,28.9,70,29.86,9.0,SW,16.1,-,0.00,,Overcast,220,2013-03-12 15:53:00
12:40 PM,39.2,28.4,65,29.85,7.0,WSW,18.4,-,0.00,,Overcast,250,2013-03-12 16:40:00
12:53 PM,39.0,28.0,65,29.86,8.0,WSW,16.1,-,0.00,,Overcast,240,2013-03-12 16:53:00
1:13 PM,39.2,28.4,65,29.85,5.0,WSW,18.4,-,N/A,,Haze,240,2013-03-12 17:13:00
1:53 PM,37.9,30.0,73,29.87,4.0,SW,11.5,19.6,0.00,Snow,Light Snow,230,2013-03-12 17:53:00
2:53 PM,37.0,27.0,67,29.87,6.0,WSW,19.6,25.3,0.00,,Overcast,240,2013-03-12 18:53:00
3:37 PM,39.2,28.4,65,29.85,10.0,WSW,16.1,-,0.00,,Overcast,240,2013-03-12 19:37:00
3:53 PM,39.0,26.1,60,29.86,10.0,SW,15.0,-,0.00,,Overcast,220,2013-03-12 19:53:00
4:14 PM,37.4,26.6,65,29.86,10.0,SW,17.3,23.0,N/A,,Overcast,230,2013-03-12 20:14:00
4:53 PM,37.0,25.0,62,29.88,10.0,SW,17.3,-,N/A,,Overcast,220,2013-03-12 20:53:00
5:53 PM,37.0,24.1,59,29.89,10.0,SW,15.0,-,N/A,,Overcast,230,2013-03-12 21:53:00
6:15 PM,37.4,24.8,60,29.88,10.0,WSW,17.3,24.2,N/A,,Overcast,240,2013-03-12 22:15:00
6:53 PM,36.0,23.0,59,29.90,10.0,WSW,12.7,-,N/A,,Overcast,250,2013-03-12 22:53:00
7:53 PM,36.0,25.0,64,29.91,9.0,WSW,12.7,-,0.00,,Overcast,240,2013-03-12 23:53:00
8:13 PM,35.6,26.6,70,29.90,6.0,SW,11.5,-,0.00,Snow,Light Snow,230,2013-03-13 00:13:00
8:49 PM,33.8,26.6,75,29.91,8.0,WSW,11.5,-,0.00,,Overcast,250,2013-03-13 00:49:00
8:53 PM,34.0,27.0,75,29.92,9.0,WSW,9.2,-,0.00,,Overcast,250,2013-03-13 00:53:00
9:53 PM,32.0,25.0,75,29.94,10.0,WSW,10.4,-,N/A,,Clear,240,2013-03-13 01:53:00
10:53 PM,30.9,25.0,79,29.93,10.0,SSW,5.8,-,N/A,,Mostly Cloudy,210,2013-03-13 02:53:00